createdAt,value
2022-09-30T00:01:36.432Z,7.40
2022-09-30T00:04:04.928Z,7.45
2022-09-30T00:06:35.048Z,6.82
2022-09-30T00:09:04.407Z,7.40
2022-09-30T00:11:36.079Z,7.78
2022-09-30T00:14:04.017Z,7.80
2022-09-30T00:16:34.403Z,7.03
2022-09-30T00:19:04.181Z,7.75
2022-09-30T00:21:33.848Z,9.15
2022-09-30T00:24:02.267Z,8.55
2022-09-30T00:26:29.900Z,8.27
2022-09-30T00:29:00.701Z,6.50
2022-09-30T00:31:31.066Z,6.22
2022-09-30T00:34:08.240Z,8.65
2022-09-30T00:36:38.115Z,6.70
2022-09-30T00:39:08.086Z,8.02
2022-09-30T00:41:36.219Z,8.13
2022-09-30T00:44:37.554Z,7.57
2022-09-30T00:47:12.819Z,7.60
2022-09-30T00:49:40.406Z,7.75
2022-09-30T00:52:08.136Z,9.48
2022-09-30T00:54:35.902Z,8.95
2022-09-30T00:57:05.106Z,8.30
2022-09-30T00:59:38.137Z,8.30
2022-09-30T01:02:07.399Z,8.30
2022-09-30T01:04:36.040Z,8.18
2022-09-30T01:07:06.516Z,9.18
2022-09-30T01:09:35.420Z,7.95
2022-09-30T01:12:05.911Z,8.68
2022-09-30T01:14:33.773Z,9.45
2022-09-30T01:17:06.985Z,8.55
2022-09-30T01:19:58.275Z,9.35
2022-09-30T01:22:42.324Z,9.63
2022-09-30T01:25:46.377Z,9.20
2022-09-30T01:28:38.743Z,9.05
2022-09-30T01:33:55.219Z,8.13
2022-09-30T01:36:39.059Z,8.65
2022-09-30T01:39:22.353Z,8.82
2022-09-30T01:41:56.842Z,7.70
2022-09-30T01:44:35.006Z,8.55
2022-09-30T01:47:11.932Z,9.48
2022-09-30T01:49:44.912Z,8.27
2022-09-30T01:52:17.487Z,9.10
2022-09-30T01:54:54.220Z,8.05
2022-09-30T01:57:29.777Z,9.00
2022-09-30T02:00:03.164Z,8.60
2022-09-30T02:02:48.511Z,8.52
2022-09-30T02:05:21.202Z,8.00
2022-09-30T02:07:54.491Z,8.50
2022-09-30T02:10:26.462Z,9.13
2022-09-30T02:13:04.791Z,8.80
2022-09-30T02:15:40.355Z,7.57
2022-09-30T02:18:19.800Z,9.85
2022-09-30T02:20:52.942Z,7.97
2022-09-30T02:23:25.769Z,9.13
2022-09-30T02:26:00.119Z,10.10
2022-09-30T02:28:30.309Z,10.15
2022-09-30T02:31:02.458Z,8.90
2022-09-30T02:33:35.907Z,8.10
2022-09-30T02:36:09.050Z,7.43
2022-09-30T02:38:42.053Z,10.63
2022-09-30T02:41:13.811Z,8.65
2022-09-30T02:43:42.225Z,8.50
2022-09-30T02:46:24.104Z,7.90
2022-09-30T02:49:00.466Z,9.77
2022-09-30T02:51:36.760Z,8.68
2022-09-30T02:54:14.992Z,8.70
2022-09-30T02:56:54.008Z,10.45
2022-09-30T02:59:22.596Z,7.70
2022-09-30T03:01:50.682Z,9.13
2022-09-30T03:04:24.053Z,8.65
2022-09-30T03:06:52.009Z,10.35
2022-09-30T03:09:19.731Z,10.32
2022-09-30T03:11:48.687Z,9.10
2022-09-30T03:14:36.886Z,9.02
2022-09-30T03:17:33.373Z,9.80
2022-09-30T03:20:17.744Z,10.32
2022-09-30T03:23:06.683Z,8.75
2022-09-30T03:25:47.156Z,9.43
2022-09-30T03:28:23.336Z,8.45
2022-09-30T03:31:00.250Z,8.27
2022-09-30T03:33:38.190Z,8.88
2022-09-30T03:36:16.307Z,8.88
2022-09-30T03:38:51.986Z,9.35
2022-09-30T03:41:27.294Z,8.73
2022-09-30T03:44:02.188Z,8.90
2022-09-30T03:46:35.407Z,8.07
2022-09-30T03:49:06.806Z,8.98
2022-09-30T03:51:37.445Z,7.80
2022-09-30T03:54:08.860Z,8.43
2022-09-30T03:56:39.193Z,8.05
2022-09-30T03:59:06.833Z,7.75
2022-09-30T04:01:34.444Z,8.15
2022-09-30T04:04:02.483Z,8.00
2022-09-30T04:06:29.995Z,7.25
2022-09-30T04:08:58.948Z,7.90
2022-09-30T04:11:26.661Z,8.82
2022-09-30T04:13:54.228Z,8.30
2022-09-30T04:16:22.046Z,7.22
2022-09-30T04:18:49.640Z,6.80
2022-09-30T04:21:17.538Z,8.85
2022-09-30T04:23:45.050Z,7.57
2022-09-30T04:26:15.930Z,7.30
2022-09-30T04:28:43.814Z,7.93
2022-09-30T04:31:13.043Z,7.97
2022-09-30T04:33:41.455Z,8.50
2022-09-30T04:36:09.530Z,8.77
2022-09-30T04:38:37.222Z,6.88
2022-09-30T04:41:06.310Z,7.53
2022-09-30T04:43:35.579Z,7.97
2022-09-30T04:46:03.253Z,7.85
2022-09-30T04:48:32.285Z,7.28
2022-09-30T04:51:00.854Z,7.25
2022-09-30T04:53:29.241Z,7.57
2022-09-30T04:56:00.911Z,8.60
2022-09-30T04:58:32.254Z,8.30
2022-09-30T05:01:04.855Z,7.28
2022-09-30T05:03:32.640Z,8.63
2022-09-30T05:06:00.206Z,9.30
2022-09-30T05:08:27.859Z,7.75
2022-09-30T05:10:57.389Z,8.20
2022-09-30T05:13:26.544Z,7.57
2022-09-30T05:15:54.117Z,7.28
2022-09-30T05:18:26.302Z,7.50
2022-09-30T05:20:54.887Z,7.82
2022-09-30T05:23:22.804Z,8.63
2022-09-30T05:25:51.939Z,8.13
2022-09-30T05:28:19.748Z,10.05
2022-09-30T05:30:47.953Z,7.40
2022-09-30T05:33:15.579Z,8.15
2022-09-30T05:35:44.939Z,8.75
2022-09-30T05:38:12.762Z,8.25
2022-09-30T05:40:40.981Z,8.82
2022-09-30T05:43:08.577Z,9.02
2022-09-30T05:45:36.216Z,10.38
2022-09-30T05:48:03.923Z,9.13
2022-09-30T05:50:31.780Z,8.50
2022-09-30T05:53:01.737Z,9.30
2022-09-30T05:55:29.487Z,9.75
2022-09-30T05:57:57.280Z,8.38
2022-09-30T06:00:24.956Z,10.25
2022-09-30T06:02:53.251Z,8.82
2022-09-30T06:05:22.037Z,10.32
2022-09-30T06:07:50.400Z,12.02
2022-09-30T06:10:19.369Z,10.90
2022-09-30T06:12:46.945Z,9.90
2022-09-30T06:15:14.538Z,10.68
2022-09-30T06:17:42.542Z,9.75
2022-09-30T06:20:11.352Z,9.40
2022-09-30T06:22:39.487Z,9.00
2022-09-30T06:25:07.843Z,10.38
2022-09-30T06:27:38.114Z,9.95
2022-09-30T06:30:07.099Z,9.73
2022-09-30T06:32:34.848Z,8.27
2022-09-30T06:35:03.740Z,10.57
2022-09-30T06:37:31.303Z,11.27
2022-09-30T06:39:58.862Z,10.90
2022-09-30T06:42:26.384Z,9.90
2022-09-30T06:44:55.662Z,10.63
2022-09-30T06:47:25.774Z,11.35
2022-09-30T06:49:58.368Z,9.07
2022-09-30T06:52:27.237Z,10.38
2022-09-30T06:54:56.390Z,10.32
2022-09-30T06:57:25.136Z,9.85
2022-09-30T06:59:52.960Z,9.55
2022-09-30T07:02:22.241Z,9.27
2022-09-30T07:04:50.181Z,11.63
2022-09-30T07:07:22.128Z,12.57
2022-09-30T07:09:50.003Z,10.70
2022-09-30T07:12:17.627Z,10.80
2022-09-30T07:14:45.308Z,10.10
2022-09-30T07:17:12.827Z,11.25
2022-09-30T07:19:41.741Z,11.40
2022-09-30T07:22:26.820Z,11.02
2022-09-30T07:24:54.750Z,17.20
2022-09-30T07:27:22.613Z,16.23
2022-09-30T07:30:08.252Z,15.23
2022-09-30T07:32:37.775Z,14.73
2022-09-30T07:35:07.305Z,15.45
2022-09-30T07:37:35.867Z,15.20
2022-09-30T07:40:06.542Z,16.98
2022-09-30T07:42:37.477Z,16.25
2022-09-30T07:45:06.169Z,16.25
2022-09-30T07:47:33.672Z,13.98
2022-09-30T07:50:01.267Z,16.23
2022-09-30T07:52:30.346Z,13.45
2022-09-30T07:54:57.873Z,15.90
2022-09-30T07:57:25.407Z,14.40
2022-09-30T07:59:53.057Z,14.02
2022-09-30T08:02:20.961Z,16.83
2022-09-30T08:04:48.753Z,12.35
2022-09-30T08:07:17.958Z,11.95
2022-09-30T08:09:47.121Z,12.70
2022-09-30T08:12:14.899Z,13.40
2022-09-30T08:14:44.476Z,12.75
2022-09-30T08:17:12.190Z,15.43
2022-09-30T08:19:43.888Z,17.52
2022-09-30T08:22:13.716Z,12.65
2022-09-30T08:24:41.262Z,14.60
2022-09-30T08:27:10.214Z,13.63
2022-09-30T08:32:25.542Z,14.63
2022-09-30T08:34:53.253Z,13.25
2022-09-30T08:37:20.793Z,12.05
2022-09-30T08:39:48.389Z,13.65
2022-09-30T08:42:38.029Z,12.20
2022-09-30T08:45:18.038Z,13.95
2022-09-30T08:47:57.570Z,13.10
2022-09-30T08:50:31.639Z,11.95
2022-09-30T08:53:02.426Z,14.30
2022-09-30T08:55:36.896Z,15.25
2022-09-30T08:58:08.175Z,13.63
2022-09-30T09:00:36.652Z,12.43
2022-09-30T09:03:04.960Z,15.90
2022-09-30T09:05:49.910Z,14.00
2022-09-30T09:08:30.460Z,13.45
2022-09-30T09:11:02.938Z,13.45
2022-09-30T09:13:46.223Z,13.70
2022-09-30T09:16:22.415Z,13.38
2022-09-30T09:19:00.156Z,12.90
2022-09-30T09:21:52.372Z,12.95
2022-09-30T09:24:22.176Z,13.10
2022-09-30T09:26:52.393Z,13.52
2022-09-30T09:29:28.894Z,11.88
2022-09-30T09:31:57.234Z,12.55
2022-09-30T09:34:26.976Z,14.73
2022-09-30T09:37:07.520Z,12.80
2022-09-30T09:40:04.558Z,13.05
2022-09-30T09:42:50.842Z,12.73
2022-09-30T09:45:29.329Z,13.63
2022-09-30T09:47:59.956Z,13.43
2022-09-30T09:50:40.632Z,11.57
2022-09-30T09:53:22.137Z,12.07
2022-09-30T09:55:54.865Z,12.38
2022-09-30T09:58:22.495Z,12.02
2022-09-30T10:01:19.987Z,9.82
2022-09-30T10:03:48.291Z,10.90
2022-09-30T10:06:16.025Z,11.25
2022-09-30T10:08:54.777Z,11.35
2022-09-30T10:11:24.720Z,11.52
2022-09-30T10:13:57.013Z,11.85
2022-09-30T10:16:31.876Z,9.90
2022-09-30T10:19:00.348Z,10.13
2022-09-30T10:21:30.045Z,8.63
2022-09-30T10:23:59.797Z,9.15
2022-09-30T10:26:28.714Z,9.38
2022-09-30T10:28:57.833Z,9.50
2022-09-30T10:31:29.538Z,8.00
2022-09-30T10:34:04.306Z,8.27
2022-09-30T10:36:34.240Z,9.55
2022-09-30T10:39:07.171Z,10.30
2022-09-30T10:41:36.797Z,8.77
2022-09-30T10:44:07.673Z,8.05
2022-09-30T10:46:40.353Z,10.57
2022-09-30T10:49:12.776Z,8.50
2022-09-30T10:51:41.569Z,9.57
2022-09-30T10:54:35.740Z,10.25
2022-09-30T10:57:04.403Z,10.45
2022-09-30T10:59:36.159Z,10.50
2022-09-30T11:02:26.358Z,11.50
2022-09-30T11:05:03.432Z,10.13
2022-09-30T11:07:34.592Z,8.65
2022-09-30T11:10:07.653Z,10.32
2022-09-30T11:12:44.523Z,10.13
2022-09-30T11:15:19.918Z,8.60
2022-09-30T11:17:55.733Z,10.15
2022-09-30T11:20:27.586Z,10.73
2022-09-30T11:23:02.568Z,9.82
2022-09-30T11:25:41.604Z,9.98
2022-09-30T11:28:48.770Z,10.00
2022-09-30T11:31:26.729Z,11.07
2022-09-30T11:34:10.268Z,10.85
2022-09-30T11:36:46.712Z,10.45
2022-09-30T11:39:31.765Z,8.90
2022-09-30T11:42:06.576Z,9.57
2022-09-30T11:44:36.296Z,12.43
2022-09-30T11:47:46.440Z,8.65
2022-09-30T11:50:39.948Z,7.82
2022-09-30T11:53:19.051Z,9.15
2022-09-30T11:56:04.319Z,8.70
2022-09-30T11:58:41.602Z,8.63
2022-09-30T12:01:22.766Z,8.55
2022-09-30T12:03:58.059Z,7.63
2022-09-30T12:06:32.936Z,7.63
2022-09-30T12:09:06.839Z,6.65
2022-09-30T12:11:40.612Z,7.38
2022-09-30T12:14:17.130Z,6.78
2022-09-30T12:16:47.881Z,9.57
2022-09-30T12:19:24.494Z,7.47
2022-09-30T12:21:59.828Z,6.45
2022-09-30T12:24:33.695Z,5.60
2022-09-30T12:27:01.894Z,7.32
2022-09-30T12:29:52.032Z,5.45
2022-09-30T12:32:37.249Z,5.45
2022-09-30T12:35:25.724Z,6.70
2022-09-30T12:38:12.947Z,7.70
2022-09-30T12:41:03.735Z,8.00
2022-09-30T12:44:06.760Z,7.90
2022-09-30T12:46:55.164Z,5.50
2022-09-30T12:49:26.003Z,5.35
2022-09-30T12:51:56.914Z,4.68
2022-09-30T12:54:29.830Z,5.47
2022-09-30T12:57:03.226Z,4.82
2022-09-30T12:59:34.842Z,5.65
2022-09-30T13:02:04.923Z,6.10
2022-09-30T13:04:35.907Z,5.30
2022-09-30T13:07:22.709Z,4.40
2022-09-30T13:10:01.229Z,4.93
2022-09-30T13:12:41.611Z,6.68
2022-09-30T13:15:24.980Z,4.63
2022-09-30T13:17:52.800Z,4.93
2022-09-30T13:20:55.050Z,5.53
2022-09-30T13:26:38.075Z,5.13
2022-09-30T13:29:39.288Z,4.97
2022-09-30T13:32:11.535Z,4.68
2022-09-30T13:34:57.843Z,4.13
2022-09-30T13:37:40.402Z,5.07
2022-09-30T13:40:49.767Z,4.63
2022-09-30T13:43:21.218Z,4.75
2022-09-30T13:45:52.849Z,5.53
2022-09-30T13:48:26.734Z,4.85
2022-09-30T13:50:56.434Z,4.93
2022-09-30T13:53:30.428Z,4.60
2022-09-30T13:56:01.722Z,5.65
2022-09-30T13:58:52.702Z,4.50
2022-09-30T14:01:34.695Z,4.30
2022-09-30T14:07:05.187Z,5.35
2022-09-30T14:12:32.941Z,4.93
2022-09-30T14:15:31.701Z,5.68
2022-09-30T14:18:23.277Z,4.75
2022-09-30T14:21:06.053Z,5.22
2022-09-30T14:23:33.660Z,4.13
2022-09-30T14:26:16.217Z,4.20
2022-09-30T14:28:50.209Z,4.40
2022-09-30T14:31:20.333Z,4.75
2022-09-30T14:33:51.980Z,4.30
2022-09-30T14:36:23.203Z,4.25
2022-09-30T14:38:54.694Z,4.57
2022-09-30T14:41:24.199Z,4.97
2022-09-30T14:43:56.473Z,4.80
2022-09-30T14:46:31.812Z,3.65
2022-09-30T14:49:04.522Z,4.68
2022-09-30T14:51:38.091Z,3.40
2022-09-30T14:54:06.257Z,4.45
2022-09-30T14:56:36.443Z,3.92
2022-09-30T14:59:17.726Z,5.30
2022-09-30T15:01:48.709Z,6.47
2022-09-30T15:04:18.868Z,5.28
2022-09-30T15:06:49.456Z,4.25
2022-09-30T15:09:19.441Z,4.75
2022-09-30T15:11:48.474Z,3.63
2022-09-30T15:14:19.375Z,4.78
2022-09-30T15:16:50.648Z,3.85
2022-09-30T15:19:23.002Z,4.63
2022-09-30T15:21:53.097Z,4.70
2022-09-30T15:24:23.909Z,3.85
2022-09-30T15:26:53.514Z,5.18
2022-09-30T15:29:21.030Z,3.88
2022-09-30T15:31:55.038Z,4.85
2022-09-30T15:34:26.053Z,4.47
2022-09-30T15:36:59.683Z,3.20
2022-09-30T15:39:51.354Z,4.97
2022-09-30T15:42:36.111Z,3.60
2022-09-30T15:45:06.204Z,5.63
2022-09-30T15:47:54.936Z,4.57
2022-09-30T15:50:43.318Z,4.28
2022-09-30T15:53:20.013Z,6.50
2022-09-30T15:55:50.447Z,3.70
2022-09-30T15:58:37.816Z,5.43
2022-09-30T16:01:21.292Z,5.00
2022-09-30T16:03:54.610Z,5.65
2022-09-30T16:06:31.568Z,4.63
2022-09-30T16:09:02.168Z,5.90
2022-09-30T16:11:34.678Z,5.38
2022-09-30T16:14:05.460Z,3.95
2022-09-30T16:16:36.028Z,4.90
2022-09-30T16:19:06.460Z,4.72
2022-09-30T16:21:47.097Z,5.00
2022-09-30T16:24:48.902Z,5.45
2022-09-30T16:27:37.569Z,5.82
2022-09-30T16:30:07.423Z,4.38
2022-09-30T16:32:39.584Z,4.47
2022-09-30T16:35:17.013Z,5.65
2022-09-30T16:37:45.013Z,3.80
2022-09-30T16:40:24.328Z,3.50
2022-09-30T16:42:54.684Z,3.72
2022-09-30T16:45:23.042Z,4.53
2022-09-30T16:47:50.668Z,3.65
2022-09-30T16:50:25.343Z,3.65
2022-09-30T16:52:52.946Z,5.63
2022-09-30T16:55:20.482Z,3.97
2022-09-30T16:57:48.168Z,3.40
2022-09-30T17:00:17.975Z,4.07
2022-09-30T17:02:47.389Z,3.83
2022-09-30T17:05:18.493Z,4.47
2022-09-30T17:07:48.662Z,4.00
2022-09-30T17:10:22.354Z,4.25
2022-09-30T17:12:51.104Z,4.57
2022-09-30T17:15:19.548Z,3.05
2022-09-30T17:17:47.530Z,4.07
2022-09-30T17:20:15.630Z,3.83
2022-09-30T17:22:44.065Z,4.28
2022-09-30T17:25:13.005Z,3.95
2022-09-30T17:27:40.680Z,3.08
2022-09-30T17:30:09.640Z,3.88
2022-09-30T17:32:37.264Z,4.22
2022-09-30T17:35:05.953Z,4.32
2022-09-30T17:37:33.495Z,5.18
2022-09-30T17:40:01.534Z,3.53
2022-09-30T17:42:48.215Z,5.20
2022-09-30T17:45:15.983Z,5.47
2022-09-30T17:47:43.787Z,4.25
2022-09-30T17:50:12.778Z,4.38
2022-09-30T17:52:40.366Z,5.60
2022-09-30T17:55:08.307Z,5.03
2022-09-30T17:57:39.869Z,4.57
2022-09-30T18:00:09.085Z,5.88
2022-09-30T18:02:38.450Z,6.03
2022-09-30T18:05:06.772Z,5.75
2022-09-30T18:07:34.378Z,4.75
2022-09-30T18:10:02.455Z,5.60
2022-09-30T18:12:29.993Z,6.57
2022-09-30T18:14:59.695Z,5.38
2022-09-30T18:17:28.632Z,5.72
2022-09-30T18:19:56.267Z,8.73
2022-09-30T18:22:23.940Z,5.85
2022-09-30T18:25:09.007Z,5.10
2022-09-30T18:27:36.675Z,5.15
2022-09-30T18:30:06.783Z,7.15
2022-09-30T18:32:34.401Z,6.93
2022-09-30T18:35:01.948Z,5.88
2022-09-30T18:37:33.161Z,5.85
2022-09-30T18:40:00.857Z,5.17
2022-09-30T18:42:30.171Z,6.03
2022-09-30T18:44:57.755Z,6.47
2022-09-30T18:47:27.235Z,5.70
2022-09-30T18:49:54.895Z,6.50
2022-09-30T18:52:22.490Z,5.60
2022-09-30T18:54:50.172Z,5.32
2022-09-30T18:57:17.876Z,5.63
2022-09-30T18:59:45.603Z,5.95
2022-09-30T19:02:15.326Z,5.68
2022-09-30T19:04:44.312Z,6.05
2022-09-30T19:07:12.039Z,5.78
2022-09-30T19:09:40.962Z,5.13
2022-09-30T19:12:08.676Z,7.47
2022-09-30T19:14:37.384Z,5.35
2022-09-30T19:17:04.953Z,6.97
2022-09-30T19:19:32.931Z,6.47
2022-09-30T19:22:02.920Z,5.57
2022-09-30T19:24:30.483Z,5.28
2022-09-30T19:26:58.137Z,5.25
2022-09-30T19:29:25.940Z,9.38
2022-09-30T19:31:53.644Z,7.07
2022-09-30T19:34:30.791Z,6.80
2022-09-30T19:37:00.086Z,8.07
2022-09-30T19:39:40.762Z,7.32
2022-09-30T19:45:04.194Z,7.68
2022-09-30T19:47:34.309Z,6.15
2022-09-30T19:50:02.122Z,6.97
2022-09-30T19:52:30.095Z,6.53
2022-09-30T19:55:08.625Z,6.28
2022-09-30T19:57:42.391Z,4.97
2022-09-30T20:00:11.100Z,5.38
2022-09-30T20:02:39.325Z,8.00
2022-09-30T20:05:08.108Z,5.55
2022-09-30T20:07:35.933Z,6.53
2022-09-30T20:10:05.482Z,5.65
2022-09-30T20:12:33.135Z,5.15
2022-09-30T20:15:18.224Z,6.95
2022-09-30T20:17:45.853Z,5.40
2022-09-30T20:20:30.796Z,7.30
2022-09-30T20:23:01.010Z,5.78
2022-09-30T20:25:30.466Z,4.65
2022-09-30T20:27:58.091Z,5.22
2022-09-30T20:30:26.880Z,5.05
2022-09-30T20:32:54.572Z,5.13
2022-09-30T20:35:22.281Z,5.85
2022-09-30T20:37:50.019Z,5.15
2022-09-30T20:40:17.906Z,5.15
2022-09-30T20:42:46.894Z,4.20
2022-09-30T20:45:17.969Z,6.38
2022-09-30T20:47:47.142Z,5.25
2022-09-30T20:50:34.618Z,4.13
2022-09-30T20:53:04.176Z,5.72
2022-09-30T20:55:34.738Z,5.70
2022-09-30T20:58:04.605Z,4.32
2022-09-30T21:00:32.755Z,4.53
2022-09-30T21:03:00.423Z,4.25
2022-09-30T21:05:28.084Z,6.32
2022-09-30T21:07:55.943Z,4.72
2022-09-30T21:10:23.608Z,5.63
2022-09-30T21:12:51.171Z,5.85
2022-09-30T21:15:20.116Z,6.07
2022-09-30T21:17:47.681Z,4.68
2022-09-30T21:20:15.451Z,5.80
2022-09-30T21:22:43.102Z,4.97
2022-09-30T21:25:11.796Z,5.35
2022-09-30T21:27:40.296Z,4.47
2022-09-30T21:30:08.887Z,4.88
2022-09-30T21:32:39.232Z,5.03
2022-09-30T21:35:07.574Z,4.63
2022-09-30T21:37:35.161Z,7.03
2022-09-30T21:40:02.881Z,4.88
2022-09-30T21:42:30.628Z,4.75
2022-09-30T21:44:58.304Z,4.78
2022-09-30T21:47:25.827Z,4.78
2022-09-30T21:49:54.695Z,4.57
2022-09-30T21:52:22.926Z,4.63
2022-09-30T21:54:52.042Z,6.13
2022-09-30T21:57:19.659Z,3.63
2022-09-30T21:59:50.339Z,5.32
2022-09-30T22:02:18.165Z,4.32
2022-09-30T22:04:45.736Z,4.63
2022-09-30T22:07:16.027Z,6.18
2022-09-30T22:09:43.995Z,4.65
2022-09-30T22:12:11.734Z,5.10
2022-09-30T22:14:39.353Z,4.97
2022-09-30T22:17:10.037Z,5.60
2022-09-30T22:19:38.848Z,3.58
2022-09-30T22:22:06.461Z,4.82
2022-09-30T22:24:36.759Z,4.75
2022-09-30T22:27:05.377Z,5.40
2022-09-30T22:29:32.920Z,4.38
2022-09-30T22:32:02.214Z,3.63
2022-09-30T22:34:47.493Z,4.95
2022-09-30T22:37:32.918Z,4.07
2022-09-30T22:40:02.253Z,4.63
2022-09-30T22:42:30.167Z,4.43
2022-09-30T22:44:57.702Z,5.15
2022-09-30T22:47:25.251Z,4.30
2022-09-30T22:49:52.841Z,4.00
2022-09-30T22:52:20.414Z,4.40
2022-09-30T22:54:47.971Z,4.18
2022-09-30T22:57:17.072Z,4.22
2022-09-30T22:59:46.484Z,4.00
2022-09-30T23:02:15.638Z,5.45
2022-09-30T23:04:44.033Z,3.63
2022-09-30T23:07:11.698Z,5.25
2022-09-30T23:09:39.271Z,3.72
2022-09-30T23:12:06.943Z,3.40
2022-09-30T23:14:35.848Z,5.22
2022-09-30T23:17:03.573Z,3.78
2022-09-30T23:19:31.204Z,3.80
2022-09-30T23:21:58.948Z,4.13
2022-09-30T23:24:27.814Z,4.32
2022-09-30T23:26:55.533Z,4.30
2022-09-30T23:29:23.267Z,3.92
2022-09-30T23:32:44.008Z,3.70
2022-09-30T23:35:14.096Z,3.88
2022-09-30T23:37:41.734Z,4.28
2022-09-30T23:40:10.257Z,4.38
2022-09-30T23:42:37.852Z,5.03
2022-09-30T23:45:05.914Z,4.72
2022-09-30T23:47:34.450Z,4.88
2022-09-30T23:50:02.247Z,3.40
2022-09-30T23:52:31.331Z,5.05
2022-09-30T23:54:58.958Z,3.90
2022-09-30T23:57:26.717Z,3.85
2022-09-30T23:59:54.332Z,4.80
